createdAt,value
2022-08-23T00:00:15.717Z,0.7
2022-08-23T00:01:21.780Z,0.7
2022-08-23T00:02:24.954Z,0.65
2022-08-23T00:03:17.452Z,0.65
2022-08-23T00:04:20.137Z,0.92
2022-08-23T00:05:15.829Z,0.92
2022-08-23T00:06:21.212Z,1.04
2022-08-23T00:07:17.570Z,0.87
2022-08-23T00:08:19.105Z,0.87
2022-08-23T00:09:10.175Z,0.58
2022-08-23T00:10:04.968Z,0.58
2022-08-23T00:11:11.085Z,0.85
2022-08-23T00:12:14.330Z,0.85
2022-08-23T00:13:18.151Z,0.77
2022-08-23T00:14:19.134Z,0.6
2022-08-23T00:15:24.217Z,0.88
2022-08-23T00:16:20.714Z,0.88
2022-08-23T00:17:36.772Z,0.7
2022-08-23T00:18:05.111Z,0.82
2022-08-23T00:19:23.411Z,0.84
2022-08-23T00:20:15.256Z,1.5
2022-08-23T00:21:16.402Z,1.5
2022-08-23T00:22:18.235Z,0.88
2022-08-23T00:23:20.337Z,0.88
2022-08-23T00:24:15.980Z,0.65
2022-08-23T00:25:21.129Z,0.65
2022-08-23T00:26:16.179Z,0.75
2022-08-23T00:27:06.598Z,0.75
2022-08-23T00:28:17.149Z,0.91
2022-08-23T00:29:21.300Z,1.12
2022-08-23T00:30:20.764Z,0.72
2022-08-23T00:31:17.759Z,0.72
2022-08-23T00:32:17.994Z,0.92
2022-08-23T00:33:23.364Z,0.59
2022-08-23T00:34:17.358Z,0.81
2022-08-23T00:35:14.346Z,0.81
2022-08-23T00:36:16.993Z,0.81
2022-08-23T00:37:14.570Z,0.85
2022-08-23T00:38:35.381Z,0.94
2022-08-23T00:39:25.356Z,0.76
2022-08-23T00:40:06.182Z,0.76
2022-08-23T00:41:17.042Z,0.76
2022-08-23T00:42:16.263Z,1.11
2022-08-23T00:43:16.721Z,0.76
2022-08-23T00:44:13.575Z,0.76
2022-08-23T00:45:11.676Z,0.91
2022-08-23T00:46:20.777Z,1.04
2022-08-23T00:47:18.911Z,0.59
2022-08-23T00:48:20.415Z,0.59
2022-08-23T00:49:06.473Z,0.82
2022-08-23T00:50:25.835Z,1.05
2022-08-23T00:51:17.463Z,1.05
2022-08-23T00:52:19.973Z,0.9
2022-08-23T00:53:17.980Z,0.9
2022-08-23T00:54:16.296Z,0.69
2022-08-23T00:55:22.568Z,0.89
2022-08-23T00:56:16.158Z,0.89
2022-08-23T00:57:17.116Z,0.89
2022-08-23T00:58:17.137Z,0.99
2022-08-23T00:59:19.607Z,0.99
2022-08-23T01:00:13.857Z,0.99
2022-08-23T01:01:20.008Z,0.94
2022-08-23T01:02:17.475Z,0.71
2022-08-23T01:03:19.300Z,0.71
2022-08-23T01:04:12.983Z,0.66
2022-08-23T01:05:32.101Z,0.8
2022-08-23T01:06:05.945Z,0.8
2022-08-23T01:07:16.888Z,1.03
2022-08-23T01:08:16.611Z,0.83
2022-08-23T01:09:20.433Z,0.62
2022-08-23T01:10:10.283Z,0.62
2022-08-23T01:11:21.471Z,0.63
2022-08-23T01:12:34.879Z,0.63
2022-08-23T01:13:13.857Z,0.63
2022-08-23T01:14:22.211Z,0.74
2022-08-23T01:15:19.942Z,1.09
2022-08-23T01:16:20.163Z,1.09
2022-08-23T01:17:25.405Z,0.84
2022-08-23T01:18:19.143Z,0.9
2022-08-23T01:19:16.622Z,0.64
2022-08-23T01:20:26.820Z,0.64
2022-08-23T01:22:06.031Z,0.88
2022-08-23T01:23:22.277Z,0.68
2022-08-23T01:25:05.836Z,0.87
2022-08-23T01:25:17.132Z,0.58
2022-08-23T01:26:24.145Z,1.08
2022-08-23T01:27:17.628Z,0.81
2022-08-23T01:28:17.288Z,0.81
2022-08-23T01:29:14.537Z,0.99
2022-08-23T01:30:21.057Z,0.69
2022-08-23T01:31:14.833Z,0.71
2022-08-23T01:32:16.693Z,0.71
2022-08-23T01:33:13.827Z,1.04
2022-08-23T01:34:20.016Z,0.77
2022-08-23T01:36:16.096Z,0.83
2022-08-23T01:37:17.690Z,0.83
2022-08-23T01:38:14.496Z,0.71
2022-08-23T01:39:16.907Z,0.68
2022-08-23T01:40:05.212Z,0.68
2022-08-23T01:41:17.143Z,0.86
2022-08-23T01:42:17.091Z,0.74
2022-08-23T01:43:15.340Z,0.96
2022-08-23T01:44:14.262Z,0.96
2022-08-23T01:45:15.693Z,0.85
2022-08-23T01:46:20.875Z,0.76
2022-08-23T01:47:15.901Z,0.79
2022-08-23T01:48:22.381Z,0.79
2022-08-23T01:49:15.139Z,0.84
2022-08-23T01:50:16.974Z,0.84
2022-08-23T01:51:17.211Z,1.53
2022-08-23T01:52:16.968Z,0.88
2022-08-23T01:53:16.000Z,0.88
2022-08-23T01:54:17.988Z,0.88
2022-08-23T01:55:25.616Z,0.69
2022-08-23T01:56:19.793Z,0.85
2022-08-23T01:57:15.339Z,0.85
2022-08-23T01:58:18.742Z,0.97
2022-08-23T01:59:18.670Z,1.22
2022-08-23T02:00:18.707Z,0.82
2022-08-23T02:01:18.028Z,0.82
2022-08-23T02:02:21.109Z,0.74
2022-08-23T02:03:14.791Z,1.21
2022-08-23T02:04:18.409Z,1.21
2022-08-23T02:05:21.120Z,1.07
2022-08-23T02:06:17.463Z,0.73
2022-08-23T02:07:17.795Z,0.73
2022-08-23T02:08:19.576Z,1.16
2022-08-23T02:09:20.606Z,0.95
2022-08-23T02:10:05.017Z,0.95
2022-08-23T02:11:21.581Z,0.95
2022-08-23T02:12:16.092Z,0.92
2022-08-23T02:13:20.586Z,0.92
2022-08-23T02:14:16.690Z,0.96
2022-08-23T02:15:18.191Z,0.96
2022-08-23T02:16:17.024Z,0.82
2022-08-23T02:17:24.332Z,0.52
2022-08-23T02:18:25.819Z,0.84
2022-08-23T02:19:17.933Z,1.34
2022-08-23T02:20:15.222Z,0.72
2022-08-23T02:22:20.228Z,1.07
2022-08-23T02:23:17.310Z,1.02
2022-08-23T02:24:17.639Z,1.02
2022-08-23T02:25:17.964Z,0.85
2022-08-23T02:26:17.621Z,0.97
2022-08-23T02:27:12.724Z,0.89
2022-08-23T02:28:18.703Z,1.51
2022-08-23T02:29:15.995Z,1.51
2022-08-23T02:30:19.850Z,1.18
2022-08-23T02:31:19.762Z,1.34
2022-08-23T02:32:14.827Z,1.34
2022-08-23T02:33:19.252Z,1
2022-08-23T02:36:24.125Z,0.76
2022-08-23T02:36:25.736Z,0.76
2022-08-23T02:37:21.207Z,0.76
2022-08-23T02:38:16.195Z,1.4
2022-08-23T02:39:31.483Z,1.06
2022-08-23T02:40:06.331Z,1.62
2022-08-23T02:41:17.270Z,0.86
2022-08-23T02:42:18.008Z,0.86
2022-08-23T02:43:23.773Z,0.66
2022-08-23T02:44:15.243Z,0.66
2022-08-23T02:45:26.535Z,0.69
2022-08-23T02:46:14.901Z,0.69
2022-08-23T02:47:28.390Z,0.76
2022-08-23T02:48:16.083Z,0.84
2022-08-23T02:49:14.318Z,0.84
2022-08-23T02:50:14.417Z,0.88
2022-08-23T02:51:13.602Z,0.88
2022-08-23T02:52:11.459Z,0.94
2022-08-23T02:53:19.174Z,1.51
2022-08-23T02:54:22.696Z,1.31
2022-08-23T02:55:19.956Z,1.31
2022-08-23T02:56:23.686Z,1.31
2022-08-23T02:57:17.434Z,0.79
2022-08-23T02:58:17.461Z,0.79
2022-08-23T02:59:20.471Z,0.94
2022-08-23T03:00:23.450Z,1.01
2022-08-23T03:01:16.837Z,1.01
2022-08-23T03:02:19.329Z,1.53
2022-08-23T03:03:20.259Z,1.48
2022-08-23T03:04:17.700Z,1.48
2022-08-23T03:05:15.326Z,1.01
2022-08-23T03:06:27.428Z,1.58
2022-08-23T03:07:15.272Z,0.92
2022-08-23T03:08:13.385Z,0.92
2022-08-23T03:09:18.130Z,0.98
2022-08-23T03:10:05.618Z,0.38
2022-08-23T03:11:22.475Z,0.86
2022-08-23T03:12:13.446Z,0.64
2022-08-23T03:13:17.659Z,0.64
2022-08-23T03:14:24.019Z,0.92
2022-08-23T03:15:21.938Z,0.72
2022-08-23T03:16:16.544Z,0.72
2022-08-23T03:17:17.954Z,1.35
2022-08-23T03:18:17.706Z,0.92
2022-08-23T03:19:30.471Z,0.92
2022-08-23T03:20:05.814Z,0.92
2022-08-23T03:21:16.117Z,0.95
2022-08-23T03:22:22.568Z,0.95
2022-08-23T03:23:16.871Z,0.89
2022-08-23T03:24:23.328Z,0.86
2022-08-23T03:25:24.004Z,1.05
2022-08-23T03:26:21.826Z,1.05
2022-08-23T03:27:18.767Z,1.05
2022-08-23T03:28:17.512Z,0.91
2022-08-23T03:29:20.506Z,0.91
2022-08-23T03:30:21.768Z,1.5
2022-08-23T03:31:20.492Z,0.77
2022-08-23T03:32:22.049Z,0.65
2022-08-23T03:33:05.424Z,0.65
2022-08-23T03:34:20.139Z,1.21
2022-08-23T03:35:17.607Z,1.03
2022-08-23T03:36:14.458Z,1.03
2022-08-23T03:37:18.881Z,1.06
2022-08-23T03:38:20.403Z,0.71
2022-08-23T03:39:31.448Z,0.71
2022-08-23T03:40:06.151Z,0.71
2022-08-23T03:41:11.151Z,1.28
2022-08-23T03:42:15.874Z,1
2022-08-23T03:43:14.250Z,1
2022-08-23T03:44:20.356Z,1.27
2022-08-23T03:45:17.913Z,1.27
2022-08-23T03:46:17.219Z,1.27
2022-08-23T03:47:20.462Z,1.15
2022-08-23T03:48:18.143Z,0.84
2022-08-23T03:49:16.551Z,0.84
2022-08-23T03:50:16.978Z,0.82
2022-08-23T03:51:05.219Z,0.82
2022-08-23T03:52:21.597Z,0.82
2022-08-23T03:53:15.704Z,0.7
2022-08-23T03:54:16.272Z,0.92
2022-08-23T03:55:15.375Z,0.92
2022-08-23T03:56:23.457Z,1.31
2022-08-23T03:57:20.534Z,1.21
2022-08-23T03:58:16.715Z,1.21
2022-08-23T03:59:22.294Z,1.03
2022-08-23T04:00:22.757Z,1.25
2022-08-23T04:01:21.818Z,0.88
2022-08-23T04:02:15.076Z,0.88
2022-08-23T04:03:29.276Z,0.88
2022-08-23T04:04:06.116Z,1.28
2022-08-23T04:05:18.928Z,1.28
2022-08-23T04:06:15.464Z,0.98
2022-08-23T04:07:15.677Z,0.98
2022-08-23T04:08:17.752Z,1.08
2022-08-23T04:09:22.520Z,0.89
2022-08-23T04:10:05.836Z,1.07
2022-08-23T04:11:29.303Z,0.81
2022-08-23T04:12:17.730Z,0.81
2022-08-23T04:13:07.498Z,0.81
2022-08-23T04:14:17.417Z,0.88
2022-08-23T04:15:19.884Z,1.55
2022-08-23T04:16:15.721Z,1.55
2022-08-23T04:17:17.587Z,0.9
2022-08-23T04:18:25.312Z,0.9
2022-08-23T04:19:16.348Z,1.07
2022-08-23T04:20:18.055Z,1.07
2022-08-23T04:21:20.325Z,0.8
2022-08-23T04:22:16.321Z,0.8
2022-08-23T04:23:20.537Z,1.21
2022-08-23T04:24:37.110Z,1.21
2022-08-23T04:26:11.923Z,0.85
2022-08-23T04:27:21.270Z,1.39
2022-08-23T04:28:15.622Z,1.39
2022-08-23T04:29:35.980Z,1.39
2022-08-23T04:30:15.950Z,0.58
2022-08-23T04:31:14.310Z,1.11
2022-08-23T04:32:16.937Z,1.11
2022-08-23T04:33:24.463Z,1.29
2022-08-23T04:34:22.259Z,1.29
2022-08-23T04:35:23.977Z,0.95
2022-08-23T04:36:16.869Z,0.95
2022-08-23T04:37:24.310Z,1
2022-08-23T04:38:27.077Z,1
2022-08-23T04:39:23.190Z,1.2
2022-08-23T04:40:05.468Z,0.81
2022-08-23T04:41:18.739Z,1.08
2022-08-23T04:42:17.244Z,1.05
2022-08-23T04:43:19.070Z,1.05
2022-08-23T04:44:23.646Z,1.14
2022-08-23T04:45:14.275Z,1.14
2022-08-23T04:46:20.862Z,0.92
2022-08-23T04:47:15.609Z,1.26
2022-08-23T04:48:16.181Z,1.26
2022-08-23T04:49:19.968Z,0.98
2022-08-23T04:50:22.003Z,1.32
2022-08-23T04:51:15.250Z,1.38
2022-08-23T04:52:21.081Z,1.38
2022-08-23T04:53:18.520Z,0.98
2022-08-23T04:54:24.645Z,0.98
2022-08-23T04:55:17.946Z,1.35
2022-08-23T04:56:19.905Z,1.35
2022-08-23T04:57:19.071Z,1.16
2022-08-23T04:58:14.250Z,0.86
2022-08-23T04:59:15.272Z,0.86
2022-08-23T05:00:20.850Z,0.98
2022-08-23T05:01:17.224Z,0.93
2022-08-23T05:02:15.090Z,1.05
2022-08-23T05:03:13.057Z,1.12
2022-08-23T05:04:21.157Z,2.06
2022-08-23T05:05:17.041Z,1.08
2022-08-23T05:06:18.142Z,1.22
2022-08-23T05:07:15.840Z,1.22
2022-08-23T05:08:17.093Z,1.33
2022-08-23T05:09:22.710Z,0.9
2022-08-23T05:10:08.948Z,0.9
2022-08-23T05:11:17.249Z,1.05
2022-08-23T05:12:25.077Z,1.05
2022-08-23T05:13:15.766Z,1.12
2022-08-23T05:14:16.596Z,1.09
2022-08-23T05:15:19.723Z,1.09
2022-08-23T05:16:18.097Z,0.93
2022-08-23T05:17:17.774Z,0.93
2022-08-23T05:18:17.826Z,1.02
2022-08-23T05:19:14.921Z,0.79
2022-08-23T05:20:17.093Z,0.79
2022-08-23T05:21:16.517Z,1.06
2022-08-23T05:22:16.720Z,0.84
2022-08-23T05:23:20.559Z,0.86
2022-08-23T05:24:17.300Z,0.86
2022-08-23T05:25:17.483Z,0.86
2022-08-23T05:26:19.234Z,1.13
2022-08-23T05:27:19.452Z,1.09
2022-08-23T05:28:15.133Z,1.09
2022-08-23T05:29:15.540Z,1.13
2022-08-23T05:30:20.240Z,1.13
2022-08-23T05:31:18.219Z,1.06
2022-08-23T05:32:17.609Z,1.42
2022-08-23T05:33:19.802Z,1.42
2022-08-23T05:34:20.273Z,1.64
2022-08-23T05:35:17.327Z,1.64
2022-08-23T05:36:18.636Z,1.51
2022-08-23T05:37:13.576Z,1.51
2022-08-23T05:38:22.723Z,1.56
2022-08-23T05:39:36.823Z,0.92
2022-08-23T05:40:07.607Z,0.92
2022-08-23T05:41:23.021Z,1.06
2022-08-23T05:42:44.981Z,1.42
2022-08-23T05:43:04.944Z,1.42
2022-08-23T05:44:14.447Z,2.66
2022-08-23T05:45:23.887Z,1.11
2022-08-23T05:46:20.616Z,1.24
2022-08-23T05:47:26.971Z,1.24
2022-08-23T05:48:20.516Z,1.24
2022-08-23T05:49:26.945Z,1.31
2022-08-23T05:50:34.289Z,1.31
2022-08-23T05:51:05.522Z,1.31
2022-08-23T05:52:16.428Z,1.07
2022-08-23T05:53:17.777Z,1.42
2022-08-23T05:54:16.110Z,1.42
2022-08-23T05:55:18.822Z,1.03
2022-08-23T05:56:12.935Z,1.03
2022-08-23T05:57:17.594Z,1.48
2022-08-23T05:58:19.656Z,1.52
2022-08-23T05:59:22.801Z,1.52
2022-08-23T06:00:20.603Z,1.05
2022-08-23T06:01:05.111Z,1.05
2022-08-23T06:02:20.005Z,1.39
2022-08-23T06:03:13.777Z,1.04
2022-08-23T06:04:23.422Z,1.94
2022-08-23T06:05:17.135Z,1.94
2022-08-23T06:06:14.875Z,1.94
2022-08-23T06:07:18.727Z,1.41
2022-08-23T06:08:05.347Z,1.41
2022-08-23T06:09:20.900Z,1.32
2022-08-23T06:10:05.798Z,1.32
2022-08-23T06:11:16.277Z,1.25
2022-08-23T06:12:21.369Z,1.25
2022-08-23T06:13:16.076Z,1.25
2022-08-23T06:14:18.553Z,1.18
2022-08-23T06:15:22.021Z,1.3
2022-08-23T06:16:17.299Z,1.3
2022-08-23T06:17:18.860Z,0.56
2022-08-23T06:18:22.419Z,0.56
2022-08-23T06:19:19.073Z,1.04
2022-08-23T06:20:20.005Z,1.15
2022-08-23T06:21:18.818Z,1.15
2022-08-23T06:22:20.197Z,1.41
2022-08-23T06:23:18.525Z,1.41
2022-08-23T06:24:18.719Z,1.65
2022-08-23T06:25:17.587Z,1.34
2022-08-23T06:26:18.536Z,1.44
2022-08-23T06:27:18.588Z,1.21
2022-08-23T06:28:05.232Z,1.46
2022-08-23T06:29:19.047Z,1.12
2022-08-23T06:30:15.796Z,0.89
2022-08-23T06:31:18.226Z,1.01
2022-08-23T06:32:18.533Z,0.86
2022-08-23T06:33:21.191Z,0.86
2022-08-23T06:34:14.322Z,0.86
2022-08-23T06:35:39.918Z,2.37
2022-08-23T06:36:15.847Z,2.37
2022-08-23T06:37:19.795Z,0.94
2022-08-23T06:38:17.004Z,1.08
2022-08-23T06:39:18.235Z,0.88
2022-08-23T06:40:06.084Z,0.88
2022-08-23T06:41:20.401Z,0.94
2022-08-23T06:42:40.269Z,0.94
2022-08-23T06:43:13.674Z,0.94
2022-08-23T06:44:16.534Z,1.06
2022-08-23T06:45:16.444Z,1.09
2022-08-23T06:46:18.684Z,0.99
2022-08-23T06:47:17.112Z,0.71
2022-08-23T06:48:20.994Z,0.74
2022-08-23T06:49:18.914Z,1.19
2022-08-23T06:50:13.760Z,1.19
2022-08-23T06:51:18.664Z,1.14
2022-08-23T06:52:18.690Z,0.85
2022-08-23T06:53:19.107Z,0.85
2022-08-23T06:54:17.285Z,0.95
2022-08-23T06:55:18.456Z,0.95
2022-08-23T06:56:19.472Z,1.07
2022-08-23T06:57:22.307Z,1.19
2022-08-23T06:58:18.994Z,0.76
2022-08-23T06:59:13.440Z,0.76
2022-08-23T07:00:18.972Z,1.13
2022-08-23T07:01:46.321Z,1.13
2022-08-23T07:02:17.825Z,1.14
2022-08-23T07:03:19.412Z,0.85
2022-08-23T07:04:15.401Z,0.85
2022-08-23T07:05:21.561Z,1.63
2022-08-23T07:06:16.218Z,1.63
2022-08-23T07:07:17.238Z,1.63
2022-08-23T07:08:17.332Z,1.16
2022-08-23T07:09:19.463Z,1.53
2022-08-23T07:10:11.701Z,1.53
2022-08-23T07:11:21.784Z,0.65
2022-08-23T07:12:19.288Z,1.29
2022-08-23T07:13:20.852Z,1.95
2022-08-23T07:14:16.529Z,1.95
2022-08-23T07:15:19.092Z,0.89
2022-08-23T07:16:19.203Z,0.89
2022-08-23T07:17:16.917Z,1.41
2022-08-23T07:18:19.339Z,1.02
2022-08-23T07:19:20.390Z,1.02
2022-08-23T07:20:20.561Z,0.7
2022-08-23T07:21:12.847Z,0.7
2022-08-23T07:22:15.544Z,1.11
2022-08-23T07:23:18.768Z,1.12
2022-08-23T07:24:15.008Z,0.92
2022-08-23T07:25:22.364Z,0.92
2022-08-23T07:26:22.080Z,0.77
2022-08-23T07:27:19.430Z,1.25
2022-08-23T07:28:19.316Z,1.29
2022-08-23T07:29:17.053Z,1.29
2022-08-23T07:30:11.942Z,0.8
2022-08-23T07:31:17.002Z,1.28
2022-08-23T07:32:20.931Z,1.19
2022-08-23T07:33:18.447Z,1.05
2022-08-23T07:34:15.458Z,1.05
2022-08-23T07:35:23.789Z,1.04
2022-08-23T07:36:22.288Z,0.76
2022-08-23T07:37:18.752Z,0.76
2022-08-23T07:38:13.235Z,0.79
2022-08-23T07:39:23.740Z,1.09
2022-08-23T07:40:05.735Z,1.09
2022-08-23T07:41:19.826Z,1.49
2022-08-23T07:42:25.815Z,1.45
2022-08-23T07:43:13.930Z,1.04
2022-08-23T07:44:20.278Z,1.25
2022-08-23T07:45:22.296Z,1.25
2022-08-23T07:46:22.448Z,1.39
2022-08-23T07:47:17.188Z,0.96
2022-08-23T07:48:53.816Z,1.09
2022-08-23T07:49:16.623Z,1.09
2022-08-23T07:50:22.044Z,1.13
2022-08-23T07:51:17.147Z,0.67
2022-08-23T07:52:15.906Z,1.24
2022-08-23T07:53:14.747Z,1.24
2022-08-23T07:54:14.545Z,0.78
2022-08-23T07:55:23.681Z,0.78
2022-08-23T07:56:19.573Z,0.89
2022-08-23T07:57:15.372Z,0.89
2022-08-23T07:58:15.006Z,0.64
2022-08-23T07:59:12.286Z,0.9
2022-08-23T08:00:18.851Z,0.9
2022-08-23T08:01:13.732Z,1.53
2022-08-23T08:02:21.071Z,1.53
2022-08-23T08:03:19.176Z,0.7
2022-08-23T08:04:23.482Z,0.7
2022-08-23T08:05:23.858Z,0.88
2022-08-23T08:06:15.835Z,0.88
2022-08-23T08:07:24.579Z,1.32
2022-08-23T08:08:13.715Z,1.31
2022-08-23T08:09:26.291Z,1.31
2022-08-23T08:10:07.125Z,1.01
2022-08-23T08:11:17.698Z,1.01
2022-08-23T08:12:22.191Z,1.08
2022-08-23T08:13:25.007Z,1.08
2022-08-23T08:14:15.226Z,0.71
2022-08-23T08:15:16.676Z,0.71
2022-08-23T08:16:20.577Z,1.12
2022-08-23T08:17:15.071Z,0.82
2022-08-23T08:18:14.035Z,0.82
2022-08-23T08:19:23.128Z,1.15
2022-08-23T08:20:17.496Z,1.15
2022-08-23T08:21:16.835Z,1.15
2022-08-23T08:22:17.386Z,0.85
2022-08-23T08:23:21.935Z,0.68
2022-08-23T08:24:18.427Z,1.05
2022-08-23T08:25:23.526Z,1.05
2022-08-23T08:26:14.716Z,1.05
2022-08-23T08:27:17.080Z,1.03
2022-08-23T08:28:18.127Z,1.01
2022-08-23T08:29:21.887Z,1.01
2022-08-23T08:30:15.276Z,0.85
2022-08-23T08:31:19.239Z,0.85
2022-08-23T08:32:19.216Z,0.68
2022-08-23T08:33:27.487Z,0.68
2022-08-23T08:34:20.198Z,0.94
2022-08-23T08:35:15.781Z,0.94
2022-08-23T08:36:18.202Z,0.81
2022-08-23T08:37:20.438Z,0.81
2022-08-23T08:38:22.190Z,0.94
2022-08-23T08:39:19.414Z,1.43
2022-08-23T08:40:07.052Z,1.43
2022-08-23T08:41:17.840Z,0.84
2022-08-23T08:42:17.721Z,0.84
2022-08-23T08:43:15.418Z,0.81
2022-08-23T08:44:18.609Z,0.81
2022-08-23T08:45:21.157Z,0.49
2022-08-23T08:46:18.848Z,0.82
2022-08-23T08:47:20.492Z,0.82
2022-08-23T08:48:19.716Z,0.89
2022-08-23T08:49:18.916Z,0.66
2022-08-23T08:50:17.325Z,0.66
2022-08-23T08:51:14.745Z,0.66
2022-08-23T08:52:16.800Z,0.85
2022-08-23T08:53:17.375Z,0.81
2022-08-23T08:54:18.111Z,0.81
2022-08-23T08:55:18.891Z,0.68
2022-08-23T08:56:19.836Z,1.2
2022-08-23T08:57:15.594Z,0.79
2022-08-23T08:58:14.438Z,0.79
2022-08-23T08:59:20.603Z,0.75
2022-08-23T09:00:12.389Z,0.55
2022-08-23T09:01:15.371Z,0.52
2022-08-23T09:02:34.213Z,0.52
2022-08-23T09:03:19.206Z,0.82
2022-08-23T09:04:19.220Z,0.91
2022-08-23T09:05:18.412Z,0.74
2022-08-23T09:06:16.701Z,0.74
2022-08-23T09:07:15.040Z,0.86
2022-08-23T09:08:22.331Z,0.86
2022-08-23T09:09:20.666Z,0.99
2022-08-23T09:10:06.205Z,0.99
2022-08-23T09:11:16.390Z,0.98
2022-08-23T09:12:18.331Z,0.71
2022-08-23T09:13:20.116Z,0.71
2022-08-23T09:14:16.265Z,0.68
2022-08-23T09:15:22.621Z,0.67
2022-08-23T09:16:21.963Z,0.71
2022-08-23T09:17:20.800Z,0.72
2022-08-23T09:18:22.588Z,0.45
2022-08-23T09:19:15.314Z,0.45
2022-08-23T09:20:16.903Z,0.64
2022-08-23T09:21:21.509Z,0.79
2022-08-23T09:22:14.828Z,0.79
2022-08-23T09:23:16.542Z,0.79
2022-08-23T09:24:15.259Z,0.65
2022-08-23T09:25:17.998Z,0.49
2022-08-23T09:26:13.962Z,0.64
2022-08-23T09:27:14.730Z,0.64
2022-08-23T09:28:14.705Z,0.64
2022-08-23T09:29:20.112Z,0.6
2022-08-23T09:30:17.893Z,0.68
2022-08-23T09:31:19.810Z,0.68
2022-08-23T09:32:18.448Z,1.01
2022-08-23T09:33:18.766Z,1.01
2022-08-23T09:34:17.378Z,1.2
2022-08-23T09:35:21.893Z,0.97
2022-08-23T09:36:14.136Z,0.38
2022-08-23T09:37:15.519Z,0.38
2022-08-23T09:38:22.098Z,0.58
2022-08-23T09:39:23.717Z,0.49
2022-08-23T09:40:05.170Z,0.49
2022-08-23T09:41:18.031Z,0.91
2022-08-23T09:42:24.373Z,0.58
2022-08-23T09:43:08.205Z,0.58
2022-08-23T09:44:16.134Z,0.58
2022-08-23T09:45:16.619Z,0.63
2022-08-23T09:46:24.274Z,0.32
2022-08-23T09:47:21.351Z,0.45
2022-08-23T09:48:14.298Z,0.45
2022-08-23T09:49:20.150Z,0.59
2022-08-23T09:50:13.803Z,0.59
2022-08-23T09:51:16.739Z,0.85
2022-08-23T09:52:24.034Z,0.85
2022-08-23T09:53:12.993Z,0.75
2022-08-23T09:54:17.979Z,0.63
2022-08-23T09:55:22.490Z,0.63
2022-08-23T09:56:16.800Z,0.61
2022-08-23T09:57:16.597Z,0.67
2022-08-23T09:58:22.573Z,0.66
2022-08-23T09:59:17.509Z,0.66
2022-08-23T10:00:14.474Z,0.33
2022-08-23T10:01:17.232Z,0.33
2022-08-23T10:02:13.149Z,0.55
2022-08-23T10:03:18.228Z,0.74
2022-08-23T10:04:24.269Z,0.49
2022-08-23T10:05:17.416Z,0.76
2022-08-23T10:06:16.137Z,0.76
2022-08-23T10:07:15.760Z,0.22
2022-08-23T10:08:23.201Z,0.22
2022-08-23T10:09:20.617Z,0.33
2022-08-23T10:10:05.104Z,0.33
2022-08-23T10:11:22.725Z,0.65
2022-08-23T10:12:18.261Z,0.65
2022-08-23T10:13:29.877Z,0.5
2022-08-23T10:14:25.915Z,0.48
2022-08-23T10:15:22.834Z,0.48
2022-08-23T10:16:17.057Z,0.41
2022-08-23T10:17:24.478Z,0.24
2022-08-23T10:18:15.095Z,0.59
2022-08-23T10:19:14.831Z,0.84
2022-08-23T10:20:19.239Z,0.49
2022-08-23T10:21:25.855Z,0.42
2022-08-23T10:22:18.864Z,0.42
2022-08-23T10:23:14.477Z,0.42
2022-08-23T10:24:17.075Z,1.91
2022-08-23T10:25:19.125Z,0.41
2022-08-23T10:26:19.850Z,0.39
2022-08-23T10:27:16.193Z,0.47
2022-08-23T10:28:19.846Z,0.52
2022-08-23T10:29:17.495Z,0.52
2022-08-23T10:30:35.372Z,0.42
2022-08-23T10:31:06.129Z,0.42
2022-08-23T10:32:20.381Z,0.7
2022-08-23T10:33:23.299Z,0.7
2022-08-23T10:34:18.696Z,0.44
2022-08-23T10:35:18.950Z,0.44
2022-08-23T10:36:20.240Z,0.56
2022-08-23T10:37:20.237Z,0.36
2022-08-23T10:38:18.585Z,0.44
2022-08-23T10:39:23.982Z,0.44
2022-08-23T10:40:07.027Z,0.44
2022-08-23T10:41:17.428Z,0.46
2022-08-23T10:42:17.631Z,0.21
2022-08-23T10:43:19.508Z,0.32
2022-08-23T10:44:18.131Z,0.32
2022-08-23T10:45:15.799Z,0.22
2022-08-23T10:46:20.502Z,0.41
2022-08-23T10:47:22.043Z,0.39
2022-08-23T10:48:13.200Z,0.39
2022-08-23T10:49:15.981Z,0.39
2022-08-23T10:50:19.480Z,0.26
2022-08-23T10:51:23.368Z,0.26
2022-08-23T10:52:16.251Z,0.34
2022-08-23T10:53:37.579Z,0.53
2022-08-23T10:54:04.528Z,0.31
2022-08-23T10:55:14.812Z,0.51
2022-08-23T10:56:20.176Z,0.45
2022-08-23T10:57:15.943Z,0.41
2022-08-23T10:58:19.835Z,0.53
2022-08-23T10:59:17.523Z,0.44
2022-08-23T11:00:16.181Z,0.44
2022-08-23T11:01:20.964Z,0.66
2022-08-23T11:02:18.083Z,0.66
2022-08-23T11:03:14.472Z,0.51
2022-08-23T11:04:14.983Z,0.6
2022-08-23T11:05:21.281Z,0.46
2022-08-23T11:06:15.894Z,0.41
2022-08-23T11:07:16.497Z,0.41
2022-08-23T11:08:21.747Z,0.35
2022-08-23T11:09:19.468Z,0.52
2022-08-23T11:10:07.022Z,0.52
2022-08-23T11:11:19.923Z,0.51
2022-08-23T11:12:14.234Z,0.54
2022-08-23T11:13:19.872Z,0.53
2022-08-23T11:14:14.871Z,0.53
2022-08-23T11:15:18.225Z,0.45
2022-08-23T11:16:15.751Z,0.68
2022-08-23T11:17:15.379Z,0.35
2022-08-23T11:18:23.380Z,0.35
2022-08-23T11:19:19.574Z,0.43
2022-08-23T11:20:18.629Z,1.42
2022-08-23T11:21:13.216Z,1.42
2022-08-23T11:22:21.739Z,1.42
2022-08-23T11:23:17.702Z,0.38
2022-08-23T11:24:18.241Z,0.38
2022-08-23T11:25:17.993Z,0.61
2022-08-23T11:26:15.375Z,0.34
2022-08-23T11:27:20.418Z,0.54
2022-08-23T11:28:16.480Z,0.54
2022-08-23T11:29:16.224Z,0.39
2022-08-23T11:30:17.390Z,0.45
2022-08-23T11:31:13.713Z,0.42
2022-08-23T11:32:18.202Z,0.29
2022-08-23T11:33:22.516Z,0.29
2022-08-23T11:34:18.204Z,0.45
2022-08-23T11:35:19.157Z,0.45
2022-08-23T11:36:14.725Z,0.46
2022-08-23T11:37:13.399Z,0.46
2022-08-23T11:38:10.754Z,0.43
2022-08-23T11:39:27.560Z,0.18
2022-08-23T11:40:05.672Z,0.18
2022-08-23T11:41:17.517Z,0.16
2022-08-23T11:42:16.103Z,0.57
2022-08-23T11:43:28.216Z,0.62
2022-08-23T11:44:07.590Z,0.62
2022-08-23T11:45:19.124Z,0.62
2022-08-23T11:46:13.184Z,0.32
2022-08-23T11:47:20.158Z,0.46
2022-08-23T11:48:18.055Z,0.38
2022-08-23T11:49:15.866Z,0.4
2022-08-23T11:50:17.076Z,0.33
2022-08-23T11:51:14.818Z,0.38
2022-08-23T11:52:17.763Z,0.74
2022-08-23T11:53:18.978Z,0.74
2022-08-23T11:54:18.052Z,0.38
2022-08-23T11:55:18.554Z,0.4
2022-08-23T11:56:18.047Z,0.4
2022-08-23T11:57:21.375Z,0.53
2022-08-23T11:58:15.415Z,0.53
2022-08-23T11:59:25.861Z,0.37
2022-08-23T12:00:13.503Z,0.4
2022-08-23T12:01:21.278Z,0.56
2022-08-23T12:02:18.168Z,0.63
2022-08-23T12:03:17.145Z,0.53
2022-08-23T12:04:17.765Z,0.45
2022-08-23T12:05:17.969Z,0.45
2022-08-23T12:06:15.560Z,0.65
2022-08-23T12:07:15.254Z,0.86
2022-08-23T12:08:26.599Z,0.86
2022-08-23T12:09:18.121Z,0.44
2022-08-23T12:10:04.070Z,0.44
2022-08-23T12:11:20.615Z,0.37
2022-08-23T12:12:15.127Z,0.62
2022-08-23T12:13:14.533Z,0.62
2022-08-23T12:14:16.718Z,0.4
2022-08-23T12:15:17.079Z,0.94
2022-08-23T12:16:19.463Z,0.82
2022-08-23T12:17:14.462Z,0.82
2022-08-23T12:18:24.063Z,0.49
2022-08-23T12:19:15.746Z,0.58
2022-08-23T12:20:19.613Z,0.58
2022-08-23T12:21:14.800Z,0.46
2022-08-23T12:22:14.190Z,0.59
2022-08-23T12:23:16.300Z,0.36
2022-08-23T12:24:15.784Z,0.36
2022-08-23T12:25:18.209Z,0.61
2022-08-23T12:26:22.470Z,0.72
2022-08-23T12:27:20.792Z,0.56
2022-08-23T12:28:18.548Z,0.56
2022-08-23T12:29:16.661Z,0.56
2022-08-23T12:30:20.706Z,0.33
2022-08-23T12:31:19.989Z,0.53
2022-08-23T12:32:12.604Z,0.53
2022-08-23T12:33:14.478Z,0.33
2022-08-23T12:34:16.878Z,0.33
2022-08-23T12:35:17.427Z,0.56
2022-08-23T12:36:20.568Z,0.56
2022-08-23T12:37:18.555Z,0.48
2022-08-23T12:38:17.270Z,0.45
2022-08-23T12:39:21.526Z,0.38
2022-08-23T12:40:05.356Z,0.38
2022-08-23T12:41:17.481Z,0.56
2022-08-23T12:42:17.299Z,0.56
2022-08-23T12:43:24.334Z,0.47
2022-08-23T12:44:16.189Z,0.72
2022-08-23T12:45:16.049Z,0.72
2022-08-23T12:46:15.633Z,0.36
2022-08-23T12:47:20.637Z,0.32
2022-08-23T12:48:17.415Z,0.32
2022-08-23T12:49:17.685Z,0.51
2022-08-23T12:50:13.373Z,0.31
2022-08-23T12:51:17.190Z,0.31
2022-08-23T12:52:16.695Z,0.46
2022-08-23T12:53:15.815Z,0.46
2022-08-23T12:54:20.398Z,0.34
2022-08-23T12:55:16.332Z,0.55
2022-08-23T12:56:18.319Z,0.55
2022-08-23T12:57:17.952Z,0.75
2022-08-23T12:58:18.503Z,0.75
2022-08-23T12:59:18.657Z,0.46
2022-08-23T13:00:20.017Z,0.46
2022-08-23T13:01:24.614Z,0.48
2022-08-23T13:02:20.742Z,0.43
2022-08-23T13:03:22.159Z,0.43
2022-08-23T13:04:15.089Z,0.51
2022-08-23T13:05:16.804Z,0.51
2022-08-23T13:06:21.542Z,0.52
2022-08-23T13:07:16.273Z,0.5
2022-08-23T13:08:19.561Z,0.5
2022-08-23T13:09:36.017Z,0.55
2022-08-23T13:10:05.741Z,0.32
2022-08-23T13:11:16.937Z,0.51
2022-08-23T13:12:24.368Z,0.71
2022-08-23T13:13:12.677Z,0.71
2022-08-23T13:14:20.663Z,0.39
2022-08-23T13:15:18.300Z,0.45
2022-08-23T13:16:14.224Z,0.77
2022-08-23T13:17:16.748Z,0.77
2022-08-23T13:18:17.643Z,0.39
2022-08-23T13:19:16.962Z,0.61
2022-08-23T13:20:15.715Z,0.61
2022-08-23T13:21:19.615Z,0.27
2022-08-23T13:22:16.568Z,0.27
2022-08-23T13:23:20.526Z,0.58
2022-08-23T13:24:16.090Z,0.58
2022-08-23T13:25:32.767Z,0.52